Time;durP1;ratioP1;P1;durP2;ratioP2;P2;SDS_P1;SDS_P2;PMS_P1;PMS_P2;Temp;Humidity;BMP_temperature;BMP_pressure;BME280_temperature;BME280_humidity;BME280_pressure;Samples;Min_cycle;Max_cycle;Signal;HPM_P1;HPM_P2
2023/12/06 00:00:55;;;;;;;11.67;6.80;;;;;;;;;;5001146;28;20736;-88
2023/12/06 00:03:28;;;;;;;9.60;6.33;;;;;;;;;;5012996;28;20235;-89
2023/12/06 00:06:00;;;;;;;11.03;6.50;;;;;;;;;;5013575;28;20674;-88
2023/12/06 00:08:39;;;;;;;14.40;8.83;;;;;;;;;;5013191;28;20207;-88
2023/12/06 00:11:19;;;;;;;18.70;8.63;;;;;;;;;;5016218;28;20734;-88
2023/12/06 00:13:57;;;;;;;16.40;9.13;;;;;;;;;;5015452;28;20196;-89
2023/12/06 00:19:29;;;;;;;;;;;;;;;;;;;;;
2023/12/06 00:22:01;;;;;;;11.83;7.47;;;;;;;;;;5018349;28;20584;-89
2023/12/06 00:24:35;;;;;;;12.73;5.83;;;;;;;;;;5023338;28;20232;-89
2023/12/06 00:27:04;;;;;;;13.93;7.20;;;;;;;;;;5026526;28;20588;-88
2023/12/06 00:29:33;;;;;;;14.17;7.13;;;;;;;;;;5023959;28;20231;-87
2023/12/06 00:32:10;;;;;;;18.30;7.80;;;;;;;;;;5017846;28;20209;-89
2023/12/06 00:34:40;;;;;;;17.67;8.60;;;;;;;;;;5018747;28;20685;-88
2023/12/06 00:37:11;;;;;;;10.70;7.23;;;;;;;;;;5016751;28;20204;-88
2023/12/06 00:39:44;;;;;;;6.93;5.70;;;;;;;;;;5016350;28;20225;-87
2023/12/06 00:42:21;;;;;;;10.57;6.20;;;;;;;;;;5018082;28;20196;-88
2023/12/06 00:44:52;;;;;;;11.50;6.17;;;;;;;;;;5015172;28;20287;-87
2023/12/06 00:47:27;;;;;;;11.73;5.07;;;;;;;;;;5014982;28;20255;-88
2023/12/06 00:50:08;;;;;;;15.80;6.70;;;;;;;;;;5015488;28;20636;-88
2023/12/06 00:52:40;;;;;;;9.33;4.87;;;;;;;;;;5015747;28;20224;-88
2023/12/06 00:55:14;;;;;;;9.57;5.70;;;;;;;;;;5015229;28;20216;-88
2023/12/06 00:57:57;;;;;;;7.43;5.77;;;;;;;;;;5016668;28;20201;-87
2023/12/06 01:00:35;;;;;;;9.53;5.37;;;;;;;;;;5016677;28;20200;-88
2023/12/06 01:03:06;;;;;;;7.73;5.93;;;;;;;;;;5017351;28;20199;-89
2023/12/06 01:05:47;;;;;;;9.57;5.77;;;;;;;;;;5023829;28;20211;-89
2023/12/06 01:08:19;;;;;;;13.80;5.77;;;;;;;;;;5026036;28;20215;-87
2023/12/06 01:10:50;;;;;;;8.27;6.07;;;;;;;;;;5020539;28;20259;-88
2023/12/06 01:13:34;;;;;;;11.83;6.20;;;;;;;;;;5015063;28;20803;-90
2023/12/06 01:16:06;;;;;;;13.23;5.67;;;;;;;;;;5015889;28;20216;-89
2023/12/06 01:18:38;;;;;;;10.30;5.63;;;;;;;;;;5016768;28;20197;-88
2023/12/06 01:21:12;;;;;;;9.90;5.53;;;;;;;;;;5017343;28;20199;-86
2023/12/06 01:23:47;;;;;;;9.27;5.47;;;;;;;;;;5016399;28;20314;-88
2023/12/06 01:26:33;;;;;;;7.43;5.17;;;;;;;;;;5017341;28;20606;-89
2023/12/06 01:29:16;;;;;;;10.23;5.60;;;;;;;;;;5015892;28;20219;-89
2023/12/06 01:31:48;;;;;;;9.50;5.30;;;;;;;;;;5015078;28;20204;-88
2023/12/06 01:34:26;;;;;;;16.63;5.87;;;;;;;;;;5016322;28;20193;-89
2023/12/06 01:36:56;;;;;;;11.03;5.57;;;;;;;;;;5015243;28;20197;-88
2023/12/06 01:39:24;;;;;;;10.30;5.43;;;;;;;;;;5016559;28;20284;-88
2023/12/06 01:41:54;;;;;;;7.50;5.20;;;;;;;;;;5016971;28;20214;-87
2023/12/06 01:44:26;;;;;;;11.90;6.67;;;;;;;;;;5019298;28;20340;-88
2023/12/06 01:47:01;;;;;;;13.27;6.17;;;;;;;;;;5025404;28;20193;-88
2023/12/06 01:49:45;;;;;;;7.93;3.90;;;;;;;;;;5028060;28;20188;-87
2023/12/06 01:52:16;;;;;;;10.43;6.00;;;;;;;;;;5036014;28;20248;-88
2023/12/06 01:54:58;;;;;;;8.60;4.83;;;;;;;;;;5035791;28;20189;-88
2023/12/06 01:57:26;;;;;;;10.50;6.73;;;;;;;;;;5035474;28;20232;-88
2023/12/06 02:00:04;;;;;;;11.03;6.50;;;;;;;;;;5036590;28;20208;-88
2023/12/06 02:02:34;;;;;;;12.20;6.10;;;;;;;;;;5036095;28;20208;-88
2023/12/06 02:05:04;;;;;;;11.10;5.53;;;;;;;;;;5029720;28;20216;-87
2023/12/06 02:07:51;;;;;;;10.13;4.90;;;;;;;;;;5031401;28;20577;-88
2023/12/06 02:10:21;;;;;;;11.70;4.87;;;;;;;;;;5030256;28;20260;-88
2023/12/06 02:13:09;;;;;;;9.33;4.20;;;;;;;;;;5027930;28;20262;-87
2023/12/06 02:15:39;;;;;;;7.27;5.00;;;;;;;;;;5024161;28;20200;-88
2023/12/06 02:18:08;;;;;;;6.87;4.53;;;;;;;;;;5031743;28;20267;-87
2023/12/06 02:20:42;;;;;;;9.80;6.27;;;;;;;;;;5032578;28;20203;-87
2023/12/06 02:23:19;;;;;;;12.73;6.13;;;;;;;;;;5023200;28;20197;-88
2023/12/06 02:26:00;;;;;;;6.63;4.97;;;;;;;;;;5018858;28;20196;-88
2023/12/06 02:28:28;;;;;;;5.37;3.97;;;;;;;;;;5018026;28;20196;-88
2023/12/06 02:30:56;;;;;;;9.37;5.53;;;;;;;;;;5017258;28;20223;-89
2023/12/06 02:33:29;;;;;;;21.50;6.23;;;;;;;;;;5014272;28;20282;-88
2023/12/06 02:36:02;;;;;;;10.83;5.10;;;;;;;;;;5015249;28;20204;-88
2023/12/06 02:38:37;;;;;;;10.50;6.77;;;;;;;;;;5016268;28;20219;-89
2023/12/06 02:44:09;;;;;;;5.93;3.77;;;;;;;;;;5015562;28;20235;-87
2023/12/06 02:46:44;;;;;;;8.47;4.67;;;;;;;;;;5016604;28;20199;-89
2023/12/06 02:49:13;;;;;;;10.03;8.07;;;;;;;;;;5015575;28;20606;-88
2023/12/06 02:51:42;;;;;;;11.00;4.67;;;;;;;;;;5016009;28;20216;-88
2023/12/06 02:54:10;;;;;;;18.43;11.43;;;;;;;;;;5015973;28;20227;-88
2023/12/06 02:56:44;;;;;;;12.13;7.03;;;;;;;;;;5021495;28;20239;-88
2023/12/06 02:59:17;;;;;;;11.73;5.47;;;;;;;;;;5022326;28;20641;-88
2023/12/06 03:01:59;;;;;;;5.63;4.87;;;;;;;;;;5023359;28;20205;-88
2023/12/06 03:04:33;;;;;;;13.27;6.07;;;;;;;;;;5025251;28;20267;-88
2023/12/06 03:07:12;;;;;;;13.37;5.70;;;;;;;;;;5021809;28;20200;-88
2023/12/06 03:09:47;;;;;;;17.93;8.60;;;;;;;;;;5013604;28;20306;-88
2023/12/06 03:12:25;;;;;;;10.27;4.90;;;;;;;;;;5013440;28;20641;-88
2023/12/06 03:14:55;;;;;;;5.87;5.03;;;;;;;;;;5014304;28;20208;-87
2023/12/06 03:17:37;;;;;;;3.97;3.63;;;;;;;;;;5014606;28;20279;-88
2023/12/06 03:20:08;;;;;;;8.27;4.70;;;;;;;;;;5013620;28;20278;-88
2023/12/06 03:22:39;;;;;;;10.93;5.60;;;;;;;;;;5013795;28;20434;-89
2023/12/06 03:25:09;;;;;;;23.00;9.27;;;;;;;;;;5014358;28;20228;-88
2023/12/06 03:27:42;;;;;;;4.70;2.63;;;;;;;;;;5013541;28;20370;-88
2023/12/06 03:30:14;;;;;;;5.77;3.17;;;;;;;;;;5014128;28;20271;-89
2023/12/06 03:32:44;;;;;;;12.63;6.93;;;;;;;;;;5013082;28;20204;-89
2023/12/06 03:35:18;;;;;;;11.10;6.57;;;;;;;;;;5013832;28;20205;-89
2023/12/06 03:37:47;;;;;;;14.17;6.07;;;;;;;;;;5014352;28;20207;-88
2023/12/06 03:40:20;;;;;;;15.33;7.33;;;;;;;;;;5013316;28;20209;-88
2023/12/06 03:42:53;;;;;;;9.00;4.63;;;;;;;;;;5013343;28;20207;-87
2023/12/06 03:45:36;;;;;;;7.90;6.07;;;;;;;;;;5015569;28;20443;-88
2023/12/06 03:48:24;;;;;;;14.23;6.57;;;;;;;;;;5017139;28;20262;-88
2023/12/06 03:51:04;;;;;;;5.50;4.23;;;;;;;;;;5017967;28;20223;-89
2023/12/06 03:53:32;;;;;;;4.77;3.27;;;;;;;;;;5019612;28;20654;-88
2023/12/06 03:56:06;;;;;;;7.57;2.90;;;;;;;;;;5019514;28;20256;-88
2023/12/06 03:58:38;;;;;;;6.93;5.13;;;;;;;;;;5019875;28;20287;-87
2023/12/06 04:01:27;;;;;;;6.87;4.27;;;;;;;;;;5024828;28;20752;-89
2023/12/06 04:04:07;;;;;;;6.03;4.37;;;;;;;;;;5022742;28;20209;-87
2023/12/06 04:06:52;;;;;;;5.77;4.57;;;;;;;;;;5027243;28;20212;-88
2023/12/06 04:09:21;;;;;;;4.37;3.47;;;;;;;;;;5033757;28;20197;-88
2023/12/06 04:12:04;;;;;;;11.53;4.73;;;;;;;;;;5028557;28;20196;-89
2023/12/06 04:14:37;;;;;;;4.73;4.17;;;;;;;;;;5017108;28;20224;-89
2023/12/06 04:23:08;;;;;;;7.47;4.00;;;;;;;;;;5013911;28;20234;-90
2023/12/06 04:25:39;;;;;;;6.33;4.20;;;;;;;;;;5023189;28;20319;-88
2023/12/06 04:28:24;;;;;;;9.67;4.83;;;;;;;;;;5030771;28;20208;-89
2023/12/06 04:30:56;;;;;;;6.10;4.70;;;;;;;;;;5036524;28;20200;-89
2023/12/06 04:33:25;;;;;;;5.90;3.27;;;;;;;;;;5038451;28;20213;-89
2023/12/06 04:35:54;;;;;;;5.37;4.10;;;;;;;;;;5026877;28;20224;-88
2023/12/06 04:44:18;;;;;;;3.13;2.67;;;;;;;;;;5014098;28;20395;-89
2023/12/06 04:46:48;;;;;;;11.47;5.10;;;;;;;;;;5019429;28;20204;-89
2023/12/06 04:49:28;;;;;;;5.10;3.70;;;;;;;;;;5017939;28;20296;-89
2023/12/06 04:51:56;;;;;;;6.70;5.93;;;;;;;;;;5017572;28;20674;-87
2023/12/06 04:54:36;;;;;;;5.17;3.57;;;;;;;;;;5022582;28;20219;-88
2023/12/06 04:57:08;;;;;;;4.20;3.87;;;;;;;;;;5018029;28;20252;-88
2023/12/06 04:59:52;;;;;;;6.63;4.20;;;;;;;;;;5003532;28;20209;-89
2023/12/06 05:02:21;;;;;;;8.83;5.00;;;;;;;;;;4996949;28;20201;-88
2023/12/06 05:04:51;;;;;;;7.53;4.27;;;;;;;;;;4996168;28;20792;-87
2023/12/06 05:07:20;;;;;;;4.83;3.57;;;;;;;;;;4989579;28;20267;-86
2023/12/06 05:10:07;;;;;;;5.30;3.20;;;;;;;;;;4996389;28;20216;-87
2023/12/06 05:13:00;;;;;;;8.20;4.63;;;;;;;;;;4990361;28;20198;-87
2023/12/06 05:15:33;;;;;;;8.53;4.27;;;;;;;;;;4990060;28;20202;-86
2023/12/06 05:20:44;;;;;;;4.83;3.30;;;;;;;;;;4991396;28;20200;-87
2023/12/06 05:23:19;;;;;;;5.77;3.53;;;;;;;;;;4991998;28;20198;-86
2023/12/06 05:26:08;;;;;;;4.47;3.00;;;;;;;;;;4991260;28;20239;-86
2023/12/06 05:31:42;;;;;;;4.00;3.70;;;;;;;;;;4987360;28;20225;-87
2023/12/06 05:34:15;;;;;;;4.57;3.27;;;;;;;;;;4990603;28;20192;-88
2023/12/06 05:36:55;;;;;;;4.63;4.23;;;;;;;;;;4989896;28;20189;-87
2023/12/06 05:39:25;;;;;;;3.20;2.90;;;;;;;;;;4987907;28;20256;-87
2023/12/06 05:41:53;;;;;;;2.80;2.60;;;;;;;;;;4983976;28;20274;-90
2023/12/06 05:44:31;;;;;;;3.70;3.40;;;;;;;;;;4985409;28;20190;-87
2023/12/06 05:47:15;;;;;;;3.53;2.73;;;;;;;;;;4986669;28;20206;-88
2023/12/06 05:49:47;;;;;;;3.10;2.77;;;;;;;;;;4984962;28;20229;-87
2023/12/06 05:52:27;;;;;;;5.20;3.60;;;;;;;;;;4984695;28;20189;-88
2023/12/06 05:57:58;;;;;;;3.23;2.93;;;;;;;;;;4977371;28;20292;-88
2023/12/06 06:00:41;;;;;;;3.60;3.30;;;;;;;;;;4984543;28;20284;-89
2023/12/06 06:03:13;;;;;;;2.77;2.57;;;;;;;;;;4984739;28;20202;-88
2023/12/06 06:05:43;;;;;;;4.47;3.87;;;;;;;;;;4984633;28;20237;-87
2023/12/06 06:08:22;;;;;;;2.47;2.27;;;;;;;;;;4985470;28;20202;-89
2023/12/06 06:10:59;;;;;;;2.50;2.30;;;;;;;;;;4995706;28;20209;-89
2023/12/06 06:13:36;;;;;;;2.40;2.20;;;;;;;;;;5004674;28;20236;-87
2023/12/06 06:16:25;;;;;;;1.57;1.47;;;;;;;;;;5002320;28;20252;-88
2023/12/06 06:18:56;;;;;;;4.87;2.47;;;;;;;;;;5006239;28;20201;-88
2023/12/06 06:21:31;;;;;;;9.13;2.90;;;;;;;;;;5006403;28;20204;-88
2023/12/06 06:24:00;;;;;;;2.57;2.37;;;;;;;;;;5005219;28;20193;-88
2023/12/06 06:26:41;;;;;;;3.90;2.10;;;;;;;;;;5004176;28;20229;-86
2023/12/06 06:29:09;;;;;;;1.63;1.60;;;;;;;;;;5001547;28;20623;-86
2023/12/06 06:31:41;;;;;;;4.73;2.80;;;;;;;;;;5000713;28;20269;-88
2023/12/06 06:34:11;;;;;;;2.53;2.33;;;;;;;;;;5000923;28;20194;-88
2023/12/06 06:36:39;;;;;;;2.77;2.57;;;;;;;;;;5000987;28;20289;-89
2023/12/06 06:39:08;;;;;;;4.60;2.23;;;;;;;;;;4999923;28;20225;-89
2023/12/06 06:41:47;;;;;;;5.83;2.53;;;;;;;;;;4998591;28;20213;-87
2023/12/06 06:44:16;;;;;;;2.97;2.07;;;;;;;;;;4999260;28;20197;-87
2023/12/06 06:46:47;;;;;;;2.93;2.30;;;;;;;;;;4999054;28;20232;-87
2023/12/06 06:49:15;;;;;;;2.53;2.30;;;;;;;;;;5001029;28;20211;-86
2023/12/06 06:51:45;;;;;;;1.93;1.83;;;;;;;;;;4989567;28;20202;-87
2023/12/06 06:54:31;;;;;;;3.60;2.33;;;;;;;;;;4991877;28;20237;-87
2023/12/06 06:57:00;;;;;;;2.80;2.20;;;;;;;;;;5004899;28;20307;-89
2023/12/06 06:59:29;;;;;;;1.87;1.77;;;;;;;;;;5007616;28;20221;-86
2023/12/06 07:02:03;;;;;;;2.60;2.40;;;;;;;;;;5019483;28;20231;-87
2023/12/06 07:04:32;;;;;;;1.83;1.83;;;;;;;;;;5019922;28;20196;-87
2023/12/06 07:07:02;;;;;;;2.23;2.13;;;;;;;;;;5020824;28;20288;-87
2023/12/06 07:09:33;;;;;;;2.43;2.33;;;;;;;;;;5020144;28;20201;-87
2023/12/06 07:12:04;;;;;;;2.53;2.33;;;;;;;;;;5021005;28;20207;-88
2023/12/06 07:14:36;;;;;;;3.13;2.37;;;;;;;;;;5020445;28;20212;-88
2023/12/06 07:17:16;;;;;;;2.90;2.70;;;;;;;;;;5019253;28;20208;-88
2023/12/06 07:19:50;;;;;;;4.13;2.07;;;;;;;;;;5017925;28;20235;-87
2023/12/06 07:22:20;;;;;;;4.10;2.93;;;;;;;;;;5023980;28;20614;-88
2023/12/06 07:24:52;;;;;;;6.10;4.60;;;;;;;;;;5027741;28;20205;-85
2023/12/06 07:27:32;;;;;;;5.43;4.83;;;;;;;;;;5032788;28;20207;-86
2023/12/06 07:30:04;;;;;;;5.50;4.80;;;;;;;;;;5024563;28;20665;-87
2023/12/06 07:32:43;;;;;;;5.67;4.57;;;;;;;;;;5018650;28;20199;-88
2023/12/06 07:35:18;;;;;;;3.90;3.57;;;;;;;;;;5018830;28;20211;-86
2023/12/06 07:38:08;;;;;;;5.23;4.03;;;;;;;;;;5017555;28;20236;-88
2023/12/06 07:40:42;;;;;;;7.37;3.80;;;;;;;;;;5021859;28;20188;-86
2023/12/06 07:43:10;;;;;;;6.63;4.27;;;;;;;;;;5023103;28;20231;-88
2023/12/06 07:45:39;;;;;;;5.00;3.83;;;;;;;;;;5021185;28;20229;-87
2023/12/06 07:48:11;;;;;;;4.33;3.93;;;;;;;;;;5017578;28;20200;-89
2023/12/06 07:50:40;;;;;;;5.07;3.67;;;;;;;;;;4999646;28;20208;-88
2023/12/06 07:53:12;;;;;;;6.10;4.60;;;;;;;;;;5002965;28;20201;-88
2023/12/06 07:55:54;;;;;;;3.50;3.30;;;;;;;;;;5009075;28;20216;-88
2023/12/06 07:58:22;;;;;;;6.57;3.87;;;;;;;;;;5008682;28;20217;-87
2023/12/06 08:00:51;;;;;;;8.60;3.73;;;;;;;;;;5026296;28;20223;-88
2023/12/06 08:03:26;;;;;;;2.73;2.57;;;;;;;;;;5030424;28;20204;-89
2023/12/06 08:06:01;;;;;;;4.13;3.73;;;;;;;;;;5029251;28;20716;-88
2023/12/06 08:08:32;;;;;;;4.13;3.03;;;;;;;;;;5025260;28;20234;-87
2023/12/06 08:11:02;;;;;;;4.07;3.67;;;;;;;;;;5030295;28;20347;-87
2023/12/06 08:13:30;;;;;;;7.23;3.10;;;;;;;;;;5026037;28;20255;-87
2023/12/06 08:15:58;;;;;;;3.93;3.53;;;;;;;;;;5027245;28;20232;-88
2023/12/06 08:18:46;;;;;;;5.83;4.33;;;;;;;;;;5011703;28;20252;-87
2023/12/06 08:21:14;;;;;;;4.23;3.10;;;;;;;;;;5025510;28;20280;-86
2023/12/06 08:23:52;;;;;;;4.77;3.47;;;;;;;;;;5033376;28;20211;-89
2023/12/06 08:26:21;;;;;;;5.03;2.53;;;;;;;;;;5034209;28;20228;-87
2023/12/06 08:28:50;;;;;;;4.27;3.83;;;;;;;;;;5033592;28;20212;-88
2023/12/06 08:31:21;;;;;;;2.80;2.60;;;;;;;;;;5029355;28;20204;-86
2023/12/06 08:40:06;;;;;;;21.07;7.63;;;;;;;;;;5030028;28;20221;-87
2023/12/06 08:42:38;;;;;;;13.13;7.87;;;;;;;;;;5037441;28;20196;-88
2023/12/06 08:45:33;;;;;;;21.23;9.07;;;;;;;;;;5034720;28;20211;-88
2023/12/06 08:48:05;;;;;;;9.40;5.83;;;;;;;;;;5031350;28;20200;-89
2023/12/06 08:50:38;;;;;;;3.93;2.87;;;;;;;;;;5032394;28;20239;-88
2023/12/06 08:53:10;;;;;;;6.50;3.47;;;;;;;;;;5032357;28;20212;-87
2023/12/06 08:56:01;;;;;;;3.03;2.67;;;;;;;;;;5032244;28;20193;-87
2023/12/06 08:58:38;;;;;;;4.40;2.77;;;;;;;;;;5028573;28;20200;-87
2023/12/06 09:01:11;;;;;;;2.93;2.40;;;;;;;;;;5028751;28;20196;-89
2023/12/06 09:03:42;;;;;;;3.70;3.03;;;;;;;;;;5026610;28;20688;-89
2023/12/06 09:06:14;;;;;;;5.20;2.67;;;;;;;;;;5032452;28;20357;-89
2023/12/06 09:08:51;;;;;;;3.10;2.43;;;;;;;;;;5030004;28;20287;-89
2023/12/06 09:12:00;;;;;;;3.73;2.23;;;;;;;;;;5028634;28;20210;-87
2023/12/06 09:14:38;;;;;;;5.53;2.73;;;;;;;;;;5029054;28;20389;-88
2023/12/06 09:17:08;;;;;;;2.80;1.73;;;;;;;;;;5028048;28;20648;-89
2023/12/06 09:19:52;;;;;;;3.23;2.40;;;;;;;;;;5029649;28;20208;-88
2023/12/06 09:22:33;;;;;;;4.27;3.67;;;;;;;;;;5032281;28;20192;-87
2023/12/06 09:25:09;;;;;;;9.27;2.80;;;;;;;;;;5031456;28;20224;-87
2023/12/06 09:27:50;;;;;;;4.77;3.43;;;;;;;;;;5030436;28;20254;-88
2023/12/06 09:30:36;;;;;;;1.80;1.73;;;;;;;;;;5030162;28;20213;-88
2023/12/06 09:33:10;;;;;;;5.53;3.40;;;;;;;;;;5032146;28;20220;-87
2023/12/06 09:35:42;;;;;;;3.67;2.40;;;;;;;;;;5030427;28;20208;-87
2023/12/06 09:38:17;;;;;;;4.33;3.07;;;;;;;;;;5029026;28;20256;-89
2023/12/06 09:40:57;;;;;;;3.63;2.63;;;;;;;;;;5028763;28;20235;-87
2023/12/06 09:46:33;;;;;;;2.90;2.70;;;;;;;;;;5030307;28;20237;-87
2023/12/06 09:49:06;;;;;;;4.03;2.97;;;;;;;;;;5014345;28;20282;-86
2023/12/06 09:51:45;;;;;;;4.10;2.30;;;;;;;;;;5018526;28;20258;-89
2023/12/06 09:54:23;;;;;;;6.23;3.67;;;;;;;;;;5032612;28;20216;-88
2023/12/06 09:59:52;;;;;;;2.33;2.23;;;;;;;;;;5027693;28;20228;-87
2023/12/06 10:15:34;;;;;;;2.90;2.57;;;;;;;;;;5033595;28;20207;-85
2023/12/06 10:24:42;;;;;;;2.37;2.03;;;;;;;;;;4984591;28;20259;-88
2023/12/06 10:38:54;;;;;;;2.13;1.83;;;;;;;;;;5027967;28;20234;-88
2023/12/06 10:41:39;;;;;;;2.10;1.33;;;;;;;;;;5024299;28;20221;-89
2023/12/06 10:47:24;;;;;;;2.70;2.47;;;;;;;;;;5021945;28;20301;-88
2023/12/06 10:50:11;;;;;;;2.90;1.77;;;;;;;;;;5018127;28;20213;-86
2023/12/06 10:55:55;;;;;;;1.93;1.83;;;;;;;;;;5026865;23;20238;-89
2023/12/06 10:58:35;;;;;;;1.70;1.60;;;;;;;;;;5001360;28;20667;-88
2023/12/06 11:04:08;;;;;;;9.43;2.37;;;;;;;;;;4997001;28;20256;-87
2023/12/06 11:07:17;;;;;;;;;;;;;;;;;;;;;
2023/12/06 11:10:09;;;;;;;;;;;;;;;;;;;;;
2023/12/06 11:13:04;;;;;;;2.57;2.10;;;;;;;;;;4986499;28;20271;-85
2023/12/06 11:15:46;;;;;;;1.70;1.60;;;;;;;;;;4989083;28;20218;-88
2023/12/06 11:18:29;;;;;;;1.87;1.77;;;;;;;;;;4990065;28;20205;-88
2023/12/06 11:21:10;;;;;;;2.03;1.93;;;;;;;;;;4987417;28;20229;-86
2023/12/06 11:23:51;;;;;;;1.73;1.40;;;;;;;;;;4974912;28;20230;-87
2023/12/06 11:26:24;;;;;;;1.77;1.67;;;;;;;;;;4977772;28;20560;-86
2023/12/06 11:28:56;;;;;;;3.93;2.33;;;;;;;;;;4974912;28;20269;-89
2023/12/06 11:31:24;;;;;;;2.70;1.73;;;;;;;;;;4975543;28;20225;-86
2023/12/06 11:36:58;;;;;;;9.97;2.83;;;;;;;;;;4973093;28;20339;-86
2023/12/06 11:42:44;;;;;;;1.83;1.73;;;;;;;;;;4894157;29;20231;-87
2023/12/06 11:45:45;;;;;;;;;;;;;;;;;;;;;
2023/12/06 11:48:25;;;;;;;1.00;1.00;;;;;;;;;;4975621;28;20232;-88
2023/12/06 11:50:56;;;;;;;1.30;1.20;;;;;;;;;;4974724;28;20237;-87
2023/12/06 11:56:34;;;;;;;2.13;2.03;;;;;;;;;;4935942;29;20217;-87
2023/12/06 11:59:08;;;;;;;1.27;1.10;;;;;;;;;;4956136;29;20567;-88
2023/12/06 12:01:54;;;;;;;1.47;1.37;;;;;;;;;;4956383;29;20202;-88
2023/12/06 12:04:30;;;;;;;0.93;0.93;;;;;;;;;;4957083;28;20281;-87
2023/12/06 12:09:58;;;;;;;2.67;1.93;;;;;;;;;;4961492;29;20661;-87
2023/12/06 12:12:45;;;;;;;2.00;1.90;;;;;;;;;;4966516;29;20635;-88
2023/12/06 12:21:23;;;;;;;2.53;1.60;;;;;;;;;;4954373;29;20211;-87
2023/12/06 12:24:14;;;;;;;1.80;1.70;;;;;;;;;;4969640;29;20199;-83
2023/12/06 12:27:12;;;;;;;2.40;1.77;;;;;;;;;;4973837;29;20314;-86
2023/12/06 12:29:49;;;;;;;2.07;1.50;;;;;;;;;;4969775;29;20214;-86
2023/12/06 12:32:22;;;;;;;1.70;1.57;;;;;;;;;;4961162;29;20199;-88
2023/12/06 12:34:56;;;;;;;1.17;1.10;;;;;;;;;;4959929;29;20222;-89
2023/12/06 12:37:33;;;;;;;1.90;1.23;;;;;;;;;;4963286;29;20198;-87
2023/12/06 12:40:04;;;;;;;2.90;1.80;;;;;;;;;;4959177;28;20250;-87
2023/12/06 12:45:27;;;;;;;2.50;1.20;;;;;;;;;;4953513;29;20233;-88
2023/12/06 12:48:22;;;;;;;1.77;1.67;;;;;;;;;;4958106;29;20265;-87
2023/12/06 12:50:51;;;;;;;2.67;1.77;;;;;;;;;;4961176;29;20226;-87
2023/12/06 12:53:41;;;;;;;6.70;2.03;;;;;;;;;;4964395;29;20274;-87
2023/12/06 12:56:29;;;;;;;2.73;2.33;;;;;;;;;;4954374;29;20210;-88
2023/12/06 12:59:32;;;;;;;2.50;2.30;;;;;;;;;;4957057;29;20593;-88
2023/12/06 13:02:27;;;;;;;;;;;;;;;;;;;;;
2023/12/06 13:05:15;;;;;;;1.40;1.30;;;;;;;;;;4956683;29;20206;-88
2023/12/06 13:08:07;;;;;;;1.60;1.50;;;;;;;;;;4913635;29;20233;-88
2023/12/06 13:14:04;;;;;;;1.07;1.07;;;;;;;;;;4940648;29;20285;-87
2023/12/06 13:22:36;;;;;;;1.03;1.03;;;;;;;;;;4962475;29;20265;-87
2023/12/06 13:25:32;;;;;;;1.60;1.50;;;;;;;;;;4959257;29;20328;-87
2023/12/06 13:28:10;;;;;;;2.40;1.70;;;;;;;;;;4962673;29;20238;-89
2023/12/06 13:30:58;;;;;;;;;;;;;;;;;;;;;
2023/12/06 13:36:38;;;;;;;5.90;1.97;;;;;;;;;;4955911;29;20181;-86
2023/12/06 13:39:16;;;;;;;6.40;2.70;;;;;;;;;;4958086;29;20232;-87
2023/12/06 13:42:18;;;;;;;;;;;;;;;;;;;;;
2023/12/06 13:48:20;;;;;;;1.63;1.53;;;;;;;;;;4939446;29;20230;-89
2023/12/06 13:51:03;;;;;;;3.05;2.67;;;;;;;;;;4958045;29;20451;-88
2023/12/06 13:53:58;;;;;;;2.97;2.20;;;;;;;;;;4959899;28;20202;-87
2023/12/06 13:59:22;;;;;;;2.60;2.20;;;;;;;;;;4956472;29;20233;-88
2023/12/06 14:02:16;;;;;;;4.87;1.87;;;;;;;;;;4957983;29;20272;-89
2023/12/06 14:04:55;;;;;;;2.27;2.03;;;;;;;;;;4958491;29;20336;-89
2023/12/06 14:07:29;;;;;;;2.00;1.90;;;;;;;;;;4959213;29;20298;-87
2023/12/06 14:09:59;;;;;;;1.83;1.73;;;;;;;;;;4959312;29;20288;-88
2023/12/06 14:12:59;;;;;;;1.63;1.53;;;;;;;;;;4959824;29;20207;-89
2023/12/06 14:21:22;;;;;;;1.00;1.00;;;;;;;;;;4948819;29;20202;-88
2023/12/06 14:24:10;;;;;;;1.27;1.27;;;;;;;;;;4960093;29;20213;-88
2023/12/06 14:27:06;;;;;;;2.30;1.13;;;;;;;;;;4960535;29;20571;-89
2023/12/06 14:32:54;;;;;;;1.20;1.20;;;;;;;;;;4936857;29;20209;-87
2023/12/06 14:38:27;;;;;;;6.70;1.70;;;;;;;;;;4961506;28;20222;-88
2023/12/06 15:32:07;;;;;;;;;;;;;;;;;;;;;
2023/12/06 15:35:08;;;;;;;;;;;;;;;;;;;;;
2023/12/06 15:38:12;;;;;;;;;;;;;;;;;;;;;
2023/12/06 15:41:06;;;;;;;;;;;;;;;;;;;;;
2023/12/06 15:47:00;;;;;;;;;;;;;;;;;;;;;
2023/12/06 15:49:46;;;;;;;2.10;2.00;;;;;;;;;;5096334;28;20717;-87
2023/12/06 15:52:29;;;;;;;1.93;1.87;;;;;;;;;;5093947;28;20481;-88
2023/12/06 15:55:02;;;;;;;5.10;2.33;;;;;;;;;;5090858;28;20335;-87
2023/12/06 16:00:25;;;;;;;3.17;2.87;;;;;;;;;;5081996;28;20254;-88
2023/12/06 16:03:03;;;;;;;4.17;2.37;;;;;;;;;;5092269;28;20332;-88
2023/12/06 16:08:07;;;;;;;2.00;1.90;;;;;;;;;;5087729;28;20230;-86
2023/12/06 16:10:46;;;;;;;2.63;2.47;;;;;;;;;;5077140;28;20226;-88
2023/12/06 16:13:20;;;;;;;1.90;1.80;;;;;;;;;;5083273;28;20695;-87
2023/12/06 16:15:58;;;;;;;2.43;2.23;;;;;;;;;;5077479;28;20230;-87
2023/12/06 16:18:37;;;;;;;3.23;2.43;;;;;;;;;;5086249;28;20255;-88
2023/12/06 16:27:39;;;;;;;2.63;1.90;;;;;;;;;;5060487;28;20242;-86
2023/12/06 16:30:28;;;;;;;3.10;2.80;;;;;;;;;;5061162;28;20223;-89
2023/12/06 16:33:01;;;;;;;3.47;2.30;;;;;;;;;;5045036;28;20223;-89
2023/12/06 16:35:40;;;;;;;2.17;2.07;;;;;;;;;;5043631;28;20223;-87
2023/12/06 16:38:22;;;;;;;3.27;2.93;;;;;;;;;;5043734;28;20213;-87
2023/12/06 16:43:46;;;;;;;2.73;2.13;;;;;;;;;;5021946;28;20232;-87
2023/12/06 16:46:26;;;;;;;2.47;2.27;;;;;;;;;;5025129;28;20258;-89
2023/12/06 16:49:03;;;;;;;3.13;2.30;;;;;;;;;;5029215;28;20236;-88
2023/12/06 16:54:33;;;;;;;2.73;2.53;;;;;;;;;;5017892;28;20270;-87
2023/12/06 17:00:05;;;;;;;3.03;2.83;;;;;;;;;;5022177;28;20244;-88
2023/12/06 17:05:35;;;;;;;5.97;2.67;;;;;;;;;;5022188;28;20328;-87
2023/12/06 17:08:19;;;;;;;3.67;2.57;;;;;;;;;;5027321;28;20235;-88
2023/12/06 17:10:52;;;;;;;2.70;2.57;;;;;;;;;;5025198;28;20229;-88
2023/12/06 17:13:21;;;;;;;2.57;2.37;;;;;;;;;;5049661;28;20218;-89
2023/12/06 17:18:57;;;;;;;3.87;3.03;;;;;;;;;;5205524;22;20244;-88
2023/12/06 17:21:35;;;;;;;2.93;2.70;;;;;;;;;;5048941;28;20307;-89
2023/12/06 17:24:18;;;;;;;3.93;2.17;;;;;;;;;;5044793;28;20228;-88
2023/12/06 17:27:02;;;;;;;2.13;2.03;;;;;;;;;;5044409;28;20220;-89
2023/12/06 17:29:32;;;;;;;3.27;2.67;;;;;;;;;;5044980;28;20608;-87
2023/12/06 17:32:10;;;;;;;2.57;2.37;;;;;;;;;;5027904;28;20228;-86
2023/12/06 18:16:43;;;;;;;6.30;2.90;;;;;;;;;;5076998;23;20247;-89
2023/12/06 18:22:29;;;;;;;3.90;3.40;;;;;;;;;;5061270;23;20239;-88
2023/12/06 19:32:13;;;;;;;4.17;3.13;;;;;;;;;;4902710;29;20211;-88
2023/12/06 19:46:56;;;;;;;;;;;;;;;;;;;;;
2023/12/06 19:50:11;;;;;;;4.77;3.10;;;;;;;;;;4983886;28;20224;-88
2023/12/06 19:53:03;;;;;;;4.60;4.20;;;;;;;;;;4976026;28;20301;-89
2023/12/06 19:55:52;;;;;;;3.97;3.63;;;;;;;;;;4975671;28;20198;-88
2023/12/06 19:58:51;;;;;;;;;;;;;;;;;;;;;
2023/12/06 20:43:41;;;;;;;11.23;6.27;;;;;;;;;;4966616;28;20273;-89
2023/12/06 20:52:10;;;;;;;14.17;5.50;;;;;;;;;;4975813;28;20206;-89
2023/12/06 20:54:55;;;;;;;7.10;5.47;;;;;;;;;;4976570;28;20249;-88
2023/12/06 20:57:53;;;;;;;8.97;5.80;;;;;;;;;;4978325;28;20285;-88
2023/12/06 21:15:14;;;;;;;11.33;6.67;;;;;;;;;;5016668;28;20200;-88
2023/12/06 21:17:49;;;;;;;8.70;5.40;;;;;;;;;;5016761;28;20220;-88
2023/12/06 21:23:14;;;;;;;9.40;6.23;;;;;;;;;;5018850;28;20646;-89
2023/12/06 21:25:44;;;;;;;9.17;5.10;;;;;;;;;;5022214;28;20197;-89
2023/12/06 21:28:13;;;;;;;9.33;5.27;;;;;;;;;;5023082;28;20685;-89
2023/12/06 21:30:45;;;;;;;11.73;6.50;;;;;;;;;;5022125;28;20212;-89
2023/12/06 21:33:14;;;;;;;7.53;4.80;;;;;;;;;;5028340;28;20196;-90
2023/12/06 21:35:49;;;;;;;7.83;5.20;;;;;;;;;;5025139;28;20200;-89
2023/12/06 21:38:35;;;;;;;8.57;5.37;;;;;;;;;;5027468;28;20224;-90
2023/12/06 21:41:10;;;;;;;8.97;4.87;;;;;;;;;;5003723;28;20284;-89
2023/12/06 21:43:42;;;;;;;8.17;5.23;;;;;;;;;;5001394;28;20223;-88
2023/12/06 21:46:21;;;;;;;9.97;5.03;;;;;;;;;;5000514;28;20643;-89
2023/12/06 21:49:09;;;;;;;10.37;5.40;;;;;;;;;;4998412;28;20209;-88
2023/12/06 21:51:39;;;;;;;10.40;6.80;;;;;;;;;;4997959;28;20682;-88
2023/12/06 21:54:23;;;;;;;18.70;8.20;;;;;;;;;;4999391;28;20255;-89
2023/12/06 21:56:54;;;;;;;10.50;6.30;;;;;;;;;;4996963;28;20224;-87
2023/12/06 21:59:24;;;;;;;7.03;6.33;;;;;;;;;;4995791;28;20263;-88
2023/12/06 22:01:54;;;;;;;13.23;6.23;;;;;;;;;;4997004;28;20232;-89
2023/12/06 22:04:24;;;;;;;11.50;6.40;;;;;;;;;;4995863;28;20198;-90
2023/12/06 22:06:53;;;;;;;17.00;6.90;;;;;;;;;;4996557;28;20276;-89
2023/12/06 22:09:37;;;;;;;10.70;6.23;;;;;;;;;;4995720;28;20233;-88
2023/12/06 22:12:20;;;;;;;7.90;6.10;;;;;;;;;;4993978;28;20233;-89
2023/12/06 22:14:50;;;;;;;10.60;7.13;;;;;;;;;;4993879;28;20268;-88
2023/12/06 22:17:25;;;;;;;12.80;7.37;;;;;;;;;;4987532;28;20225;-88
2023/12/06 22:19:56;;;;;;;9.27;6.43;;;;;;;;;;4990615;28;20233;-90
2023/12/06 22:22:31;;;;;;;10.80;6.37;;;;;;;;;;5008255;28;20236;-89
2023/12/06 22:25:10;;;;;;;9.77;6.57;;;;;;;;;;4996221;28;20332;-89
2023/12/06 22:27:42;;;;;;;8.47;6.17;;;;;;;;;;4992102;28;20229;-89
2023/12/06 22:30:20;;;;;;;13.53;6.97;;;;;;;;;;5001324;28;20255;-88
2023/12/06 22:33:01;;;;;;;14.13;7.33;;;;;;;;;;5012063;28;20216;-88